TimeMDT,TemperatureF,Dew PointF,Humidity,Sea Level PressureIn,VisibilityMPH,Wind Direction,Wind SpeedMPH,Gust SpeedMPH,PrecipitationIn,Events,Conditions,WindDirDegrees,DateUTC
12:56 AM,48.9,46.9,93,29.99,5.0,East,8.1,-,N/A,,Partly Cloudy,100,2013-05-25 06:56:00
1:23 AM,46.4,46.4,100,29.99,1.8,East,6.9,-,N/A,,Clear,100,2013-05-25 07:23:00
1:37 AM,46.4,44.6,93,29.99,0.8,ESE,6.9,-,N/A,,Clear,120,2013-05-25 07:37:00
1:47 AM,48.2,46.4,93,29.99,1.2,ESE,6.9,-,N/A,,Clear,110,2013-05-25 07:47:00
1:56 AM,46.9,45.0,93,29.99,0.5,East,6.9,-,N/A,Fog,Fog,100,2013-05-25 07:56:00
2:30 AM,46.4,44.6,93,29.97,0.2,ENE,6.9,-,N/A,Fog,Fog,70,2013-05-25 08:30:00
2:37 AM,46.4,44.6,93,29.97,0.8,ENE,5.8,-,N/A,,Clear,70,2013-05-25 08:37:00
2:40 AM,44.6,44.6,100,29.97,0.5,ENE,5.8,-,N/A,Fog,Fog,60,2013-05-25 08:40:00
2:43 AM,44.6,42.8,93,29.97,0.2,ENE,4.6,-,N/A,Fog,Fog,70,2013-05-25 08:43:00
2:56 AM,43.0,42.1,97,29.98,0.2,ENE,6.9,-,N/A,Fog,Fog,60,2013-05-25 08:56:00
3:10 AM,46.4,46.4,100,29.97,1.0,ENE,6.9,-,N/A,,Mist,60,2013-05-25 09:10:00
3:17 AM,46.4,46.4,100,29.97,1.5,ENE,6.9,-,N/A,,Clear,60,2013-05-25 09:17:00
3:22 AM,46.4,46.4,100,29.97,2.5,NE,8.1,-,N/A,,Partly Cloudy,50,2013-05-25 09:22:00
3:25 AM,46.4,46.4,100,29.97,1.0,ENE,8.1,-,N/A,,Mist,60,2013-05-25 09:25:00
3:29 AM,46.4,44.6,93,29.97,0.2,ENE,8.1,-,N/A,Fog,Fog,70,2013-05-25 09:29:00
3:56 AM,44.1,44.1,100,29.98,0.2,East,3.5,-,N/A,Fog,Fog,100,2013-05-25 09:56:00
4:56 AM,45.0,44.1,97,29.99,0.2,ESE,6.9,-,N/A,Fog,Fog,110,2013-05-25 10:56:00
5:56 AM,46.9,46.0,97,29.98,0.2,East,9.2,-,N/A,Fog,Fog,100,2013-05-25 11:56:00
6:09 AM,46.4,46.4,100,29.98,-9999.0,North,-9999.0,-,N/A,,Unknown,0,2013-05-25 12:09:00
6:56 AM,-9999,-9999,N/A,29.98,-9999.0,North,-9999.0,-,N/A,,Unknown,0,2013-05-25 12:56:00
7:05 AM,55.4,51.8,88,29.99,2.0,East,5.8,-,N/A,Fog,Fog,90,2013-05-25 13:05:00
7:56 AM,-9999,-9999,N/A,29.96,-9999.0,North,-9999.0,-,N/A,,Unknown,0,2013-05-25 13:56:00
8:56 AM,-9999,-9999,N/A,29.97,-9999.0,North,-9999.0,-,N/A,,Unknown,0,2013-05-25 14:56:00
9:56 AM,-9999,-9999,N/A,29.96,-9999.0,North,-9999.0,-,N/A,,Unknown,0,2013-05-25 15:56:00
10:56 AM,-9999,-9999,N/A,29.95,-9999.0,North,-9999.0,-,N/A,,Unknown,0,2013-05-25 16:56:00
11:56 AM,-9999,-9999,N/A,29.95,-9999.0,North,-9999.0,-,N/A,,Unknown,0,2013-05-25 17:56:00
12:22 PM,-9999,-9999,N/A,29.92,-9999.0,North,-9999.0,-,N/A,Thunderstorm,Unknown,0,2013-05-25 18:22:00
12:34 PM,-9999,-9999,N/A,29.92,-9999.0,North,-9999.0,-,N/A,Thunderstorm,Thunderstorm,0,2013-05-25 18:34:00
12:56 PM,-9999,-9999,N/A,29.94,-9999.0,North,-9999.0,-,N/A,Thunderstorm,Thunderstorm,0,2013-05-25 18:56:00
1:21 PM,-9999,-9999,N/A,29.95,-9999.0,North,-9999.0,-,N/A,Thunderstorm,Thunderstorm,0,2013-05-25 19:21:00
1:37 PM,-9999,-9999,N/A,29.99,-9999.0,North,-9999.0,-,N/A,Thunderstorm,Thunderstorm,0,2013-05-25 19:37:00
1:52 PM,-9999,-9999,N/A,30.02,-9999.0,North,-9999.0,-,N/A,Thunderstorm,Thunderstorm,0,2013-05-25 19:52:00
1:56 PM,-9999,-9999,N/A,30.01,-9999.0,North,-9999.0,-,N/A,Thunderstorm,Thunderstorm,0,2013-05-25 19:56:00
2:38 PM,-9999,-9999,N/A,29.98,-9999.0,North,-9999.0,-,N/A,,Unknown,0,2013-05-25 20:38:00
2:56 PM,-9999,-9999,N/A,29.97,-9999.0,North,-9999.0,-,N/A,,Unknown,0,2013-05-25 20:56:00
3:05 PM,-9999,-9999,N/A,29.98,-9999.0,North,-9999.0,-,N/A,Thunderstorm,Unknown,0,2013-05-25 21:05:00
3:29 PM,-9999,-9999,N/A,29.95,-9999.0,North,-9999.0,-,N/A,,Unknown,0,2013-05-25 21:29:00
3:56 PM,-9999,-9999,N/A,29.92,-9999.0,North,-9999.0,-,N/A,,Unknown,0,2013-05-25 21:56:00
4:56 PM,-9999,-9999,N/A,29.90,-9999.0,North,-9999.0,-,N/A,,Unknown,0,2013-05-25 22:56:00
5:30 PM,-9999,-9999,N/A,29.90,-9999.0,North,-9999.0,-,N/A,Thunderstorm,Unknown,0,2013-05-25 23:30:00
5:56 PM,-9999,-9999,N/A,29.96,-9999.0,North,-9999.0,-,N/A,Thunderstorm,Thunderstorm,0,2013-05-25 23:56:00
6:38 PM,-9999,-9999,N/A,29.87,-9999.0,North,-9999.0,-,N/A,,Unknown,0,2013-05-26 00:38:00
6:56 PM,-9999,-9999,N/A,29.92,-9999.0,North,-9999.0,-,N/A,,Unknown,0,2013-05-26 00:56:00
7:56 PM,-9999,-9999,N/A,29.87,-9999.0,North,-9999.0,-,N/A,,Unknown,0,2013-05-26 01:56:00
8:56 PM,-9999,-9999,N/A,29.91,-9999.0,North,-9999.0,-,N/A,,Unknown,0,2013-05-26 02:56:00
9:56 PM,-9999,-9999,N/A,29.88,-9999.0,North,-9999.0,-,N/A,,Unknown,0,2013-05-26 03:56:00
10:56 PM,-9999,-9999,N/A,29.87,-9999.0,North,-9999.0,-,N/A,,Unknown,0,2013-05-26 04:56:00
11:56 PM,-9999,-9999,N/A,29.88,-9999.0,North,-9999.0,-,N/A,,Unknown,0,2013-05-26 05:56:00